Time;durP1;ratioP1;P1;durP2;ratioP2;P2;SDS_P1;SDS_P2;PMS_P1;PMS_P2;Temp;Humidity;BMP_temperature;BMP_pressure;BME280_temperature;BME280_humidity;BME280_pressure;Samples;Min_cycle;Max_cycle;Signal;HPM_P1;HPM_P2
2022/06/16 00:00:05;;;;;;;29.70;27.80;;;25.20;52.00;;;;;;5012717;28;20045;-77
2022/06/16 00:02:31;;;;;;;30.38;28.48;;;25.10;52.30;;;;;;5010794;28;20402;-77
2022/06/16 00:04:57;;;;;;;29.83;27.90;;;25.10;52.40;;;;;;5013045;28;20037;-77
2022/06/16 00:07:25;;;;;;;27.75;26.08;;;24.90;52.80;;;;;;5012093;28;20030;-77
2022/06/16 00:09:51;;;;;;;30.20;28.23;;;24.90;52.70;;;;;;5012213;28;20034;-77
2022/06/16 00:12:17;;;;;;;29.40;27.52;;;24.80;52.90;;;;;;5011443;28;20402;-77
2022/06/16 00:14:43;;;;;;;29.67;27.88;;;24.80;52.90;;;;;;5006996;28;20038;-77
2022/06/16 00:17:09;;;;;;;28.55;26.85;;;24.80;53.10;;;;;;4979789;28;20030;-77
2022/06/16 00:19:35;;;;;;;27.92;26.13;;;24.60;53.50;;;;;;5011981;28;20578;-77
2022/06/16 00:22:01;;;;;;;26.42;24.85;;;24.50;53.70;;;;;;5012390;28;20049;-77
2022/06/16 00:24:27;;;;;;;24.00;22.42;;;24.50;54.00;;;;;;5011981;28;20442;-77
2022/06/16 00:26:55;;;;;;;22.77;21.27;;;24.30;54.60;;;;;;5012744;28;20022;-77
2022/06/16 00:29:23;;;;;;;24.83;22.75;;;24.10;54.80;;;;;;5010788;28;20037;-77
2022/06/16 00:31:49;;;;;;;22.58;21.08;;;24.20;54.60;;;;;;5010781;28;20042;-77
2022/06/16 00:34:16;;;;;;;22.55;21.05;;;24.30;54.40;;;;;;5011506;28;20383;-76
2022/06/16 00:36:42;;;;;;;22.58;21.10;;;24.20;54.40;;;;;;5010908;28;20501;-76
2022/06/16 00:39:08;;;;;;;22.27;20.63;;;24.20;54.40;;;;;;4993407;28;20034;-77
2022/06/16 00:41:34;;;;;;;20.95;19.55;;;24.30;54.30;;;;;;5010644;28;20041;-77
2022/06/16 00:44:01;;;;;;;21.27;19.67;;;24.30;54.10;;;;;;5009948;28;20053;-77
2022/06/16 00:46:29;;;;;;;21.50;19.85;;;24.40;54.00;;;;;;5012264;28;20042;-77
2022/06/16 00:48:58;;;;;;;20.90;19.30;;;24.30;54.10;;;;;;5011594;28;20022;-77
2022/06/16 00:51:31;;;;;;;21.65;20.13;;;24.40;54.00;;;;;;5010239;28;20053;-77
2022/06/16 00:54:01;;;;;;;22.33;20.58;;;24.40;53.70;;;;;;5011012;28;20026;-77
2022/06/16 00:56:27;;;;;;;20.38;18.88;;;24.40;53.70;;;;;;5010212;28;20030;-76
2022/06/16 00:58:56;;;;;;;21.77;20.17;;;24.50;53.50;;;;;;4993746;28;20026;-77
2022/06/16 01:01:22;;;;;;;20.92;19.23;;;24.40;53.60;;;;;;4984670;28;20030;-77
2022/06/16 01:06:34;;;;;;;22.55;20.88;;;24.60;53.00;;;;;;5016059;28;20045;-77
2022/06/16 01:09:18;;;;;;;22.67;21.23;;;24.60;53.00;;;;;;4994316;28;20046;-77
2022/06/16 01:15:04;;;;;;;22.92;21.42;;;24.40;52.90;;;;;;5002354;28;20406;-76
2022/06/16 01:17:50;;;;;;;20.13;19.02;;;24.40;52.90;;;;;;5010099;28;20042;-77
2022/06/16 01:20:46;;;;;;;26.08;24.45;;;24.40;52.70;;;;;;4963371;28;20039;-77
2022/06/16 01:23:33;;;;;;;25.02;23.23;;;24.40;52.10;;;;;;4953114;28;20042;-77
2022/06/16 01:26:07;;;;;;;24.85;23.35;;;24.30;52.40;;;;;;4968932;28;20034;-77
2022/06/16 01:29:01;;;;;;;24.77;23.08;;;24.30;52.30;;;;;;4950877;28;20046;-76
2022/06/16 01:31:40;;;;;;;24.75;23.08;;;24.10;52.50;;;;;;4954490;28;20054;-77
2022/06/16 01:34:09;;;;;;;25.30;23.70;;;24.10;52.60;;;;;;4943223;28;20026;-77
2022/06/16 01:36:38;;;;;;;24.77;23.08;;;23.90;52.80;;;;;;4942134;28;20043;-76
2022/06/16 01:39:24;;;;;;;25.45;23.95;;;23.80;52.90;;;;;;4956783;28;20054;-77
2022/06/16 01:42:23;;;;;;;23.08;21.48;;;23.80;52.60;;;;;;4940569;28;20039;-77
2022/06/16 01:45:02;;;;;;;22.55;20.98;;;23.60;53.10;;;;;;4953834;28;20435;-76
2022/06/16 01:47:29;;;;;;;21.42;20.00;;;23.50;53.40;;;;;;4953883;28;20062;-76
2022/06/16 01:50:00;;;;;;;20.25;18.77;;;23.50;53.70;;;;;;4951598;28;20043;-77
2022/06/16 01:52:28;;;;;;;21.30;19.80;;;23.50;53.80;;;;;;4953026;28;20027;-77
2022/06/16 01:55:02;;;;;;;20.58;19.30;;;23.50;53.80;;;;;;4969303;28;20531;-77
2022/06/16 01:57:46;;;;;;;20.35;18.90;;;23.60;53.50;;;;;;4970532;28;20388;-77
2022/06/16 02:00:23;;;;;;;20.83;19.42;;;23.50;53.60;;;;;;4976675;28;20494;-77
2022/06/16 02:03:02;;;;;;;19.30;18.08;;;23.50;53.70;;;;;;5009658;28;20030;-77
2022/06/16 02:05:32;;;;;;;19.77;18.17;;;23.60;53.40;;;;;;4990631;28;20037;-77
2022/06/16 02:08:09;;;;;;;20.65;19.13;;;23.80;53.10;;;;;;5008705;28;20041;-77
2022/06/16 02:10:38;;;;;;;19.48;18.25;;;23.50;53.30;;;;;;4994041;28;20050;-77
2022/06/16 02:13:04;;;;;;;18.48;17.30;;;23.40;53.60;;;;;;4990565;28;20505;-76
2022/06/16 02:15:52;;;;;;;18.33;17.02;;;23.20;54.20;;;;;;4990048;28;20046;-76
2022/06/16 02:18:23;;;;;;;19.10;17.67;;;23.00;54.60;;;;;;5009656;28;20036;-77
2022/06/16 02:21:35;;;;;;;18.70;17.27;;;22.80;54.90;;;;;;4990290;28;20046;-77
2022/06/16 02:24:06;;;;;;;17.85;16.30;;;22.80;55.10;;;;;;5009449;28;20034;-77
2022/06/16 02:26:32;;;;;;;17.05;15.88;;;22.70;55.30;;;;;;4975646;28;20042;-76
2022/06/16 02:29:00;;;;;;;17.83;16.40;;;22.50;56.00;;;;;;5009457;28;20034;-76
2022/06/16 02:31:32;;;;;;;18.48;16.92;;;22.40;56.10;;;;;;5010937;28;20038;-76
2022/06/16 02:34:04;;;;;;;17.50;16.38;;;22.30;56.50;;;;;;5008981;28;20470;-76
2022/06/16 02:36:46;;;;;;;17.75;16.45;;;22.40;56.50;;;;;;4990558;28;20030;-76
2022/06/16 02:39:30;;;;;;;;;;;22.40;56.40;;;;;;5008693;28;20030;-76
2022/06/16 02:42:17;;;;;;;16.67;15.13;;;22.30;56.80;;;;;;5007881;28;19916;-76
2022/06/16 02:45:06;;;;;;;16.98;15.48;;;22.30;56.90;;;;;;4992133;28;20509;-77
2022/06/16 02:47:57;;;;;;;16.90;15.52;;;22.20;57.10;;;;;;4989358;28;20057;-76
2022/06/16 02:50:33;;;;;;;;;;;22.30;56.80;;;;;;4991509;28;20050;-76
2022/06/16 02:53:18;;;;;;;17.13;15.70;;;22.30;56.80;;;;;;5007967;28;20362;-76
2022/06/16 02:55:46;;;;;;;16.20;15.07;;;22.20;56.80;;;;;;5001749;28;20034;-77
2022/06/16 02:58:14;;;;;;;17.77;16.42;;;22.30;56.70;;;;;;5009150;28;20022;-77
2022/06/16 03:00:42;;;;;;;17.63;16.20;;;22.40;56.40;;;;;;4989506;28;20034;-77
2022/06/16 03:03:29;;;;;;;17.15;16.05;;;22.60;56.10;;;;;;4993198;28;20032;-76
2022/06/16 03:05:56;;;;;;;17.33;15.93;;;22.60;55.70;;;;;;4994538;28;20026;-76
2022/06/16 03:08:22;;;;;;;16.85;15.55;;;22.50;56.10;;;;;;4994236;28;20026;-76
2022/06/16 03:10:51;;;;;;;17.75;16.42;;;22.30;56.50;;;;;;5013128;28;20046;-77
2022/06/16 03:13:28;;;;;;;17.65;16.45;;;22.30;56.30;;;;;;5012703;28;20057;-77
2022/06/16 03:15:55;;;;;;;17.55;15.90;;;22.20;56.60;;;;;;4993153;28;20042;-76
2022/06/16 03:18:21;;;;;;;17.23;15.93;;;22.20;56.80;;;;;;4992816;28;20037;-76
2022/06/16 03:20:48;;;;;;;17.40;15.85;;;22.10;56.90;;;;;;4989422;28;20060;-77
2022/06/16 03:23:14;;;;;;;16.90;15.80;;;22.10;57.00;;;;;;5013052;28;20015;-76
2022/06/16 03:25:40;;;;;;;17.05;15.80;;;22.10;56.80;;;;;;4993613;28;20042;-76
2022/06/16 03:28:08;;;;;;;17.55;16.35;;;22.10;56.70;;;;;;5012246;28;20042;-76
2022/06/16 03:30:34;;;;;;;18.17;16.55;;;22.30;56.30;;;;;;4992815;28;20061;-77
2022/06/16 03:33:03;;;;;;;17.55;16.33;;;22.40;55.90;;;;;;4994708;28;20022;-76
2022/06/16 03:35:29;;;;;;;17.80;16.40;;;22.50;55.60;;;;;;4993793;28;20038;-77
2022/06/16 03:37:55;;;;;;;17.77;16.25;;;22.60;55.40;;;;;;5012494;28;20026;-77
2022/06/16 03:40:22;;;;;;;17.77;16.55;;;22.70;55.10;;;;;;5011586;28;20045;-76
2022/06/16 03:42:49;;;;;;;19.08;17.88;;;22.70;54.90;;;;;;4993420;28;20030;-77
2022/06/16 03:45:15;;;;;;;18.55;17.35;;;22.80;54.80;;;;;;4990826;28;20030;-77
2022/06/16 03:47:42;;;;;;;19.63;18.02;;;22.80;54.70;;;;;;5012579;28;20482;-77
2022/06/16 03:50:09;;;;;;;17.60;16.30;;;22.90;54.70;;;;;;5011134;28;20033;-77
2022/06/16 03:52:35;;;;;;;16.73;15.52;;;22.90;54.70;;;;;;4996654;28;20022;-77
2022/06/16 03:55:01;;;;;;;16.77;15.68;;;22.90;54.40;;;;;;4993348;28;20080;-76
2022/06/16 03:57:27;;;;;;;17.35;16.15;;;22.90;54.40;;;;;;4993164;28;20033;-77
2022/06/16 03:59:53;;;;;;;18.15;16.88;;;23.00;54.30;;;;;;4979189;28;20382;-77
2022/06/16 04:02:19;;;;;;;18.95;17.33;;;22.90;54.30;;;;;;5011376;28;20041;-77
2022/06/16 04:04:46;;;;;;;17.52;16.27;;;22.90;54.30;;;;;;5012512;28;20033;-77
2022/06/16 04:07:12;;;;;;;18.08;16.48;;;22.90;54.20;;;;;;5011261;28;20038;-77
2022/06/16 04:09:38;;;;;;;17.83;16.17;;;22.90;54.30;;;;;;4994093;28;20049;-77
2022/06/16 04:12:04;;;;;;;17.77;16.58;;;22.90;54.10;;;;;;4992699;28;20041;-77
2022/06/16 04:14:30;;;;;;;19.05;17.58;;;22.90;54.20;;;;;;4991583;28;20053;-77
2022/06/16 04:16:58;;;;;;;19.73;18.17;;;22.90;54.30;;;;;;5011801;28;20053;-77
2022/06/16 04:19:24;;;;;;;18.23;16.90;;;22.90;54.40;;;;;;4980153;28;20045;-77
2022/06/16 04:21:52;;;;;;;18.08;16.88;;;22.90;54.70;;;;;;4962441;28;20046;-77
2022/06/16 04:24:19;;;;;;;19.83;18.30;;;22.70;54.80;;;;;;4992372;28;20045;-76
2022/06/16 04:26:45;;;;;;;17.95;16.48;;;22.60;55.40;;;;;;4978570;28;20399;-77
2022/06/16 04:29:11;;;;;;;17.27;15.98;;;22.50;55.40;;;;;;5010396;28;20031;-76
2022/06/16 04:31:38;;;;;;;21.58;20.00;;;22.50;55.40;;;;;;5011327;28;20044;-78
2022/06/16 04:34:04;;;;;;;17.50;16.27;;;22.40;55.40;;;;;;4992494;28;20034;-76
2022/06/16 04:36:30;;;;;;;17.17;15.80;;;22.40;55.50;;;;;;4992283;28;20030;-76
2022/06/16 04:38:57;;;;;;;19.10;17.70;;;22.10;56.40;;;;;;4975714;28;20037;-77
2022/06/16 04:41:23;;;;;;;18.05;16.85;;;22.00;56.70;;;;;;4992287;28;20030;-77
2022/06/16 04:43:49;;;;;;;17.20;15.95;;;21.90;57.00;;;;;;5011343;28;20033;-76
2022/06/16 04:46:16;;;;;;;16.65;15.15;;;21.90;57.20;;;;;;5009942;28;20061;-77
2022/06/16 04:48:43;;;;;;;16.92;15.52;;;21.80;57.50;;;;;;4991827;28;20088;-77
2022/06/16 04:51:10;;;;;;;16.58;15.27;;;21.70;57.80;;;;;;5011063;28;20030;-77
2022/06/16 04:53:36;;;;;;;17.80;16.38;;;21.60;58.10;;;;;;4992038;28;20029;-77
2022/06/16 04:56:02;;;;;;;17.48;15.93;;;21.60;58.30;;;;;;5011179;28;20030;-77
2022/06/16 04:58:29;;;;;;;17.75;16.55;;;21.70;57.90;;;;;;5011273;28;20045;-76
2022/06/16 05:00:56;;;;;;;16.10;14.60;;;21.90;57.50;;;;;;5010049;28;20040;-77
2022/06/16 05:03:25;;;;;;;17.23;15.93;;;21.80;57.70;;;;;;5010916;28;20034;-77
2022/06/16 05:05:51;;;;;;;17.15;15.82;;;21.90;57.70;;;;;;5010865;28;20037;-77
2022/06/16 05:08:18;;;;;;;18.20;16.40;;;21.80;57.20;;;;;;4975699;28;20036;-77
2022/06/16 05:10:45;;;;;;;17.92;16.63;;;21.90;57.30;;;;;;5011208;28;20049;-77
2022/06/16 05:13:11;;;;;;;21.00;19.40;;;22.10;57.00;;;;;;4994290;28;20049;-76
2022/06/16 05:15:37;;;;;;;23.88;22.15;;;22.20;56.40;;;;;;4991102;28;20042;-77
2022/06/16 05:18:04;;;;;;;22.52;21.13;;;22.10;56.40;;;;;;4990799;28;20038;-77
2022/06/16 05:20:30;;;;;;;25.00;23.13;;;22.30;56.40;;;;;;5010557;28;20067;-77
2022/06/16 05:22:56;;;;;;;26.65;24.80;;;22.30;56.30;;;;;;5009843;28;20026;-77
2022/06/16 05:25:22;;;;;;;20.25;18.70;;;22.20;56.30;;;;;;4994260;28;20037;-77
2022/06/16 05:27:48;;;;;;;20.02;18.42;;;22.00;56.70;;;;;;5009982;28;20401;-76
2022/06/16 05:30:14;;;;;;;19.60;18.08;;;22.00;56.70;;;;;;4990610;28;20027;-76
2022/06/16 05:32:41;;;;;;;20.58;19.00;;;22.00;56.70;;;;;;5008631;28;20030;-77
2022/06/16 05:35:08;;;;;;;24.65;22.95;;;22.10;56.70;;;;;;5008536;28;20033;-77
2022/06/16 05:37:34;;;;;;;27.60;25.67;;;22.20;56.30;;;;;;5010367;28;20030;-77
2022/06/16 05:40:01;;;;;;;27.33;25.38;;;22.10;56.10;;;;;;5010050;28;20466;-77
2022/06/16 05:42:27;;;;;;;23.58;21.67;;;22.10;56.10;;;;;;4990895;28;20030;-77
2022/06/16 05:44:53;;;;;;;27.48;25.35;;;22.10;56.30;;;;;;4990968;28;20025;-77
2022/06/16 05:47:19;;;;;;;30.63;28.55;;;22.30;56.00;;;;;;4990455;28;20038;-77
2022/06/16 05:49:45;;;;;;;30.25;28.10;;;22.30;55.70;;;;;;5010105;28;20030;-77
2022/06/16 05:52:13;;;;;;;26.88;24.67;;;22.40;55.50;;;;;;4993769;28;20061;-77
2022/06/16 05:54:40;;;;;;;27.95;25.92;;;22.50;55.70;;;;;;5008673;28;20026;-77
2022/06/16 05:57:08;;;;;;;25.45;23.70;;;22.70;54.90;;;;;;4990619;28;20033;-76
2022/06/16 05:59:34;;;;;;;22.27;20.63;;;22.80;54.80;;;;;;4991089;28;20467;-77
2022/06/16 06:02:01;;;;;;;27.75;26.00;;;22.80;53.90;;;;;;5008203;28;20045;-77
2022/06/16 06:04:27;;;;;;;23.02;21.15;;;22.90;54.40;;;;;;5010452;28;20034;-77
2022/06/16 06:06:54;;;;;;;21.25;19.77;;;22.90;53.20;;;;;;4990707;28;20034;-77
2022/06/16 06:17:35;;;;;;;24.58;22.98;;;23.00;52.40;;;;;;4992339;28;20427;-77
2022/06/16 06:20:01;;;;;;;23.70;21.88;;;23.10;51.80;;;;;;5008270;28;20048;-76
2022/06/16 06:22:27;;;;;;;22.35;20.85;;;23.10;52.10;;;;;;5010250;28;20029;-77
2022/06/16 06:24:55;;;;;;;22.77;21.17;;;23.00;52.20;;;;;;4990462;28;20042;-77
2022/06/16 06:27:41;;;;;;;25.15;23.55;;;23.00;52.20;;;;;;4990100;28;20045;-77
2022/06/16 06:30:11;;;;;;;25.73;24.13;;;23.00;51.40;;;;;;4989369;28;20038;-77
2022/06/16 06:32:37;;;;;;;26.27;24.35;;;23.10;51.20;;;;;;4989503;28;20029;-77
2022/06/16 06:35:04;;;;;;;26.08;24.25;;;23.00;50.70;;;;;;5008148;28;20067;-77
2022/06/16 06:37:30;;;;;;;25.10;23.52;;;23.10;50.10;;;;;;5009184;28;20034;-77
2022/06/16 06:39:56;;;;;;;27.15;25.23;;;23.20;50.30;;;;;;4990286;28;20030;-77
2022/06/16 06:42:22;;;;;;;25.10;23.23;;;23.50;49.80;;;;;;4989955;28;20042;-77
2022/06/16 06:44:49;;;;;;;28.02;26.02;;;23.70;49.50;;;;;;5009344;28;20030;-77
2022/06/16 06:47:19;;;;;;;24.67;22.95;;;23.70;48.50;;;;;;4989115;28;20038;-77
2022/06/16 06:49:46;;;;;;;24.45;22.75;;;23.80;47.80;;;;;;5007045;28;20030;-77
2022/06/16 06:52:13;;;;;;;26.75;25.25;;;23.90;48.00;;;;;;5006799;28;20046;-77
2022/06/16 06:54:39;;;;;;;28.98;26.52;;;24.10;48.40;;;;;;5006475;28;20050;-77
2022/06/16 06:57:05;;;;;;;28.25;26.58;;;24.20;47.30;;;;;;5009335;28;20497;-77
2022/06/16 06:59:31;;;;;;;31.38;29.40;;;24.30;47.00;;;;;;4990429;28;20038;-78
2022/06/16 07:01:57;;;;;;;34.97;33.00;;;24.50;46.60;;;;;;4991780;28;20516;-77
2022/06/16 07:04:23;;;;;;;28.08;26.17;;;24.50;46.20;;;;;;4993267;28;20038;-76
2022/06/16 07:06:49;;;;;;;27.83;25.67;;;24.40;46.50;;;;;;4989881;28;20474;-77
2022/06/16 07:09:17;;;;;;;27.77;26.25;;;24.50;46.30;;;;;;5008652;28;20041;-77
2022/06/16 07:11:43;;;;;;;25.83;24.10;;;24.30;46.90;;;;;;4990079;28;20532;-77
2022/06/16 07:14:10;;;;;;;29.80;28.00;;;24.30;47.10;;;;;;5007196;28;20027;-77
2022/06/16 07:16:36;;;;;;;35.17;33.08;;;24.40;46.30;;;;;;4992207;28;20034;-77
2022/06/16 07:19:02;;;;;;;35.40;33.33;;;24.50;46.00;;;;;;4989868;28;20482;-78
2022/06/16 07:21:29;;;;;;;30.35;28.65;;;24.70;45.60;;;;;;5008798;28;20034;-77
2022/06/16 07:23:55;;;;;;;30.20;28.50;;;24.90;44.50;;;;;;4989635;28;20026;-78
2022/06/16 07:26:21;;;;;;;33.47;31.48;;;25.00;44.00;;;;;;4989999;28;20490;-77
2022/06/16 07:28:48;;;;;;;33.65;31.45;;;25.10;43.40;;;;;;5008997;28;20037;-77
2022/06/16 07:31:14;;;;;;;32.97;31.13;;;25.30;43.60;;;;;;5007676;28;20049;-77
2022/06/16 07:33:41;;;;;;;39.55;37.35;;;25.50;43.70;;;;;;4975919;28;20049;-78
2022/06/16 07:36:08;;;;;;;36.28;33.97;;;25.70;43.10;;;;;;4989571;28;20041;-77
2022/06/16 07:38:34;;;;;;;40.75;38.38;;;25.80;42.80;;;;;;4989346;28;20034;-78
2022/06/16 07:43:44;;;;;;;28.88;27.08;;;25.80;43.00;;;;;;5008854;28;20493;-77
2022/06/16 07:46:10;;;;;;;36.83;34.85;;;26.00;41.80;;;;;;4974168;28;20029;-77
2022/06/16 07:48:36;;;;;;;47.80;44.50;;;25.90;42.50;;;;;;4991771;28;20827;-77
2022/06/16 07:51:02;;;;;;;40.22;38.03;;;25.80;42.10;;;;;;4992940;28;20042;-77
2022/06/16 07:53:28;;;;;;;39.33;36.53;;;25.70;42.30;;;;;;4978772;28;20053;-77
2022/06/16 07:55:55;;;;;;;39.92;37.63;;;25.60;42.40;;;;;;5011870;28;20351;-77
2022/06/16 07:58:21;;;;;;;38.85;36.60;;;25.60;42.40;;;;;;5009020;28;20050;-76
2022/06/16 08:00:47;;;;;;;39.65;36.95;;;25.60;42.40;;;;;;5008711;28;20060;-77
2022/06/16 08:03:13;;;;;;;38.85;36.75;;;25.70;42.40;;;;;;4993123;28;20038;-77
2022/06/16 08:05:39;;;;;;;39.42;37.35;;;25.80;41.80;;;;;;5012072;28;20030;-77
2022/06/16 08:08:05;;;;;;;39.70;37.22;;;25.70;42.30;;;;;;5010147;28;20034;-77
2022/06/16 08:10:34;;;;;;;41.38;38.67;;;25.80;42.30;;;;;;5011415;28;20025;-77
2022/06/16 08:13:00;;;;;;;40.38;38.15;;;25.80;42.20;;;;;;4992983;28;20038;-77
2022/06/16 08:15:27;;;;;;;37.78;35.63;;;25.90;42.20;;;;;;4991765;28;20049;-77
2022/06/16 08:17:53;;;;;;;40.72;38.40;;;26.10;41.90;;;;;;4992437;28;20049;-78
2022/06/16 08:20:19;;;;;;;40.15;37.65;;;26.10;41.50;;;;;;5011176;28;20066;-77
2022/06/16 08:22:45;;;;;;;40.60;38.40;;;26.00;42.10;;;;;;5012988;28;20034;-77
2022/06/16 08:25:12;;;;;;;40.40;38.15;;;26.00;42.30;;;;;;4995557;28;20497;-77
2022/06/16 08:27:39;;;;;;;41.00;38.60;;;25.90;42.00;;;;;;4992142;28;20074;-77
2022/06/16 08:30:08;;;;;;;40.08;37.72;;;25.80;42.10;;;;;;4991825;28;20043;-77
2022/06/16 08:32:34;;;;;;;39.38;36.85;;;25.60;42.10;;;;;;5009948;28;20502;-77
2022/06/16 08:35:00;;;;;;;41.13;38.88;;;25.70;42.30;;;;;;4993560;28;20046;-78
2022/06/16 08:37:26;;;;;;;39.03;36.88;;;25.70;41.70;;;;;;4991897;28;20510;-77
2022/06/16 08:39:52;;;;;;;39.90;37.42;;;25.70;42.00;;;;;;5008924;28;20038;-77
2022/06/16 08:42:21;;;;;;;40.08;37.78;;;25.80;42.20;;;;;;4992173;28;20030;-77
2022/06/16 08:45:14;;;;;;;39.42;37.13;;;25.90;41.80;;;;;;5011432;28;20030;-77
2022/06/16 08:48:01;;;;;;;32.30;30.20;;;26.00;41.70;;;;;;4993130;28;20041;-77
2022/06/16 08:50:32;;;;;;;27.95;26.25;;;26.10;41.30;;;;;;4995455;28;20038;-77
2022/06/16 08:53:08;;;;;;;25.55;24.08;;;26.20;41.10;;;;;;5011371;28;20053;-77
2022/06/16 08:55:40;;;;;;;25.73;24.17;;;26.30;40.70;;;;;;5011080;28;20038;-77
2022/06/16 08:58:25;;;;;;;26.02;24.23;;;26.40;40.90;;;;;;4991899;28;20537;-77
2022/06/16 09:01:21;;;;;;;24.67;23.17;;;26.50;40.20;;;;;;4990635;28;20049;-78
2022/06/16 09:03:49;;;;;;;25.08;23.17;;;26.50;40.60;;;;;;4989912;28;20045;-77
2022/06/16 09:06:30;;;;;;;28.15;26.33;;;26.40;40.30;;;;;;4991561;28;20033;-77
2022/06/16 09:12:36;;;;;;;26.33;24.33;;;26.50;40.60;;;;;;5011511;28;20060;-77
2022/06/16 09:15:37;;;;;;;25.80;23.90;;;26.60;40.50;;;;;;4979365;28;20033;-76
2022/06/16 09:18:31;;;;;;;26.40;24.40;;;26.70;40.50;;;;;;4977762;28;20273;-77
2022/06/16 09:21:32;;;;;;;25.45;23.63;;;26.80;40.20;;;;;;5010147;28;20026;-77
2022/06/16 09:24:17;;;;;;;28.35;26.17;;;26.70;40.30;;;;;;5008261;28;20034;-77
2022/06/16 09:26:57;;;;;;;27.40;25.38;;;26.70;40.10;;;;;;5008915;28;20037;-78
2022/06/16 09:29:43;;;;;;;30.63;28.83;;;26.80;40.20;;;;;;4977890;28;20038;-78
2022/06/16 09:32:23;;;;;;;31.17;29.33;;;27.00;39.40;;;;;;5008702;28;20045;-78
2022/06/16 09:35:24;;;;;;;26.00;24.40;;;27.10;38.80;;;;;;5006740;28;20053;-78
2022/06/16 09:38:08;;;;;;;28.52;26.40;;;27.20;38.20;;;;;;4986200;28;20296;-77
2022/06/16 09:40:44;;;;;;;26.08;24.55;;;27.30;39.30;;;;;;4973646;28;20046;-77
2022/06/16 09:43:14;;;;;;;33.45;31.38;;;27.60;38.40;;;;;;4971874;28;20050;-77
2022/06/16 09:46:14;;;;;;;27.48;25.85;;;27.80;37.80;;;;;;4956552;28;20042;-78
2022/06/16 09:48:58;;;;;;;27.45;25.55;;;28.00;37.30;;;;;;4940783;28;20035;-77
2022/06/16 09:51:45;;;;;;;28.02;26.27;;;28.10;37.20;;;;;;4950521;28;20093;-77
2022/06/16 09:54:17;;;;;;;30.27;28.45;;;28.40;37.20;;;;;;4871574;29;20041;-77
2022/06/16 09:57:01;;;;;;;27.95;26.15;;;28.40;36.80;;;;;;4859922;29;20048;-77
2022/06/16 09:59:45;;;;;;;26.17;24.67;;;28.20;36.80;;;;;;4857666;29;20041;-77
2022/06/16 10:02:22;;;;;;;26.88;25.13;;;28.20;36.50;;;;;;4840145;29;20030;-78
2022/06/16 10:04:52;;;;;;;29.40;27.58;;;28.20;36.30;;;;;;4871035;29;20045;-78
2022/06/16 10:07:31;;;;;;;31.52;29.70;;;28.40;36.40;;;;;;4844644;29;20045;-78
2022/06/16 10:10:06;;;;;;;26.88;25.10;;;28.40;36.10;;;;;;4859888;29;20108;-77
2022/06/16 10:12:59;;;;;;;25.83;24.33;;;28.50;36.20;;;;;;4859158;29;20054;-78
2022/06/16 10:15:43;;;;;;;25.90;24.33;;;28.60;35.60;;;;;;4855443;29;20045;-78
2022/06/16 10:18:10;;;;;;;25.42;24.02;;;28.60;34.90;;;;;;4857047;29;20052;-78
2022/06/16 10:20:37;;;;;;;24.95;23.45;;;28.60;35.10;;;;;;4859837;29;20029;-77
2022/06/16 10:23:17;;;;;;;28.25;26.60;;;28.60;35.40;;;;;;4856443;29;20037;-77
2022/06/16 10:25:46;;;;;;;27.95;26.25;;;28.50;35.80;;;;;;4862809;29;20476;-77
2022/06/16 10:28:27;;;;;;;27.92;26.13;;;28.50;36.20;;;;;;4892153;29;20071;-78
2022/06/16 10:30:53;;;;;;;27.65;25.60;;;28.50;35.50;;;;;;4908747;28;20035;-78
2022/06/16 10:33:33;;;;;;;27.83;26.23;;;28.50;36.00;;;;;;5002041;28;20478;-78
2022/06/16 10:36:05;;;;;;;29.17;27.42;;;28.60;36.60;;;;;;4990671;28;20026;-77
2022/06/16 10:38:35;;;;;;;28.35;26.58;;;28.60;36.10;;;;;;4991120;28;20030;-77
2022/06/16 10:41:06;;;;;;;38.17;35.70;;;28.50;35.90;;;;;;5009751;28;20025;-78
2022/06/16 10:43:37;;;;;;;1999.90;999.90;;;28.60;35.60;;;;;;4993969;28;20026;-77
2022/06/16 10:46:20;;;;;;;26.83;24.80;;;28.70;34.90;;;;;;5009208;28;20038;-77
2022/06/16 10:48:49;;;;;;;26.95;25.40;;;28.70;35.00;;;;;;4974664;28;20061;-77
2022/06/16 10:51:18;;;;;;;1999.90;999.90;;;28.90;35.30;;;;;;4982253;28;20029;-77
2022/06/16 10:53:46;;;;;;;1999.90;999.90;;;29.00;35.40;;;;;;4977113;28;20054;-78
2022/06/16 10:56:22;;;;;;;1999.90;999.90;;;29.10;35.50;;;;;;4991768;28;20030;-77
2022/06/16 10:58:58;;;;;;;1999.90;999.90;;;29.30;34.80;;;;;;5006807;28;20042;-78
2022/06/16 11:01:42;;;;;;;1999.90;999.90;;;29.30;35.30;;;;;;5005303;28;20122;-77
2022/06/16 11:04:12;;;;;;;1999.90;999.90;;;29.40;34.90;;;;;;5007309;28;20038;-77
2022/06/16 11:06:47;;;;;;;;;;;29.40;34.50;;;;;;4991102;28;20037;-78
2022/06/16 11:09:16;;;;;;;1999.90;999.90;;;29.60;34.90;;;;;;5002047;28;20289;-78
2022/06/16 11:11:52;;;;;;;1999.90;999.90;;;29.60;34.40;;;;;;5005441;28;20035;-77
2022/06/16 11:14:59;;;;;;;1999.90;999.90;;;29.70;34.80;;;;;;4988796;28;20387;-77
2022/06/16 11:17:27;;;;;;;1999.90;999.90;;;29.70;34.90;;;;;;4974644;28;20038;-77
2022/06/16 11:20:02;;;;;;;1999.90;999.90;;;29.80;35.40;;;;;;4970558;28;20050;-77
2022/06/16 11:22:38;;;;;;;1999.90;999.90;;;29.90;34.10;;;;;;4974086;28;20053;-77
2022/06/16 11:25:23;;;;;;;1999.90;999.90;;;30.00;34.00;;;;;;4992467;28;20046;-78
2022/06/16 11:28:00;;;;;;;1999.90;999.90;;;30.10;34.60;;;;;;4993126;28;20022;-77
2022/06/16 11:30:43;;;;;;;1999.90;999.90;;;30.20;34.50;;;;;;4989530;28;20042;-78
2022/06/16 11:36:40;;;;;;;1999.90;999.90;;;30.40;34.50;;;;;;4990625;28;20463;-78
2022/06/16 11:39:33;;;;;;;1999.90;999.90;;;30.50;34.50;;;;;;4976260;28;20031;-77
2022/06/16 11:41:59;;;;;;;1999.90;999.90;;;30.50;33.80;;;;;;4992732;28;20030;-77
2022/06/16 11:44:47;;;;;;;1999.90;999.90;;;30.40;33.90;;;;;;4990266;28;20042;-77
2022/06/16 11:47:35;;;;;;;1999.90;999.90;;;30.40;34.60;;;;;;4991141;28;20364;-78
2022/06/16 11:50:28;;;;;;;1999.90;999.90;;;30.50;34.50;;;;;;4991411;28;20038;-77
2022/06/16 11:53:00;;;;;;;1999.90;999.90;;;30.50;34.30;;;;;;5002371;28;20376;-77
2022/06/16 11:55:41;;;;;;;1999.90;999.90;;;30.70;33.60;;;;;;4991170;28;20038;-78
2022/06/16 11:58:34;;;;;;;1999.90;999.90;;;30.80;33.50;;;;;;4973558;28;20051;-77
2022/06/16 12:01:05;;;;;;;1999.90;999.90;;;30.80;33.50;;;;;;4985000;28;20523;-78
2022/06/16 12:03:50;;;;;;;;;;;30.90;34.20;;;;;;4989811;28;20035;-77
2022/06/16 12:06:18;;;;;;;1999.90;999.90;;;30.90;34.10;;;;;;4985207;28;19913;-77
2022/06/16 12:09:15;;;;;;;1999.90;999.90;;;30.90;34.10;;;;;;4989619;28;20487;-78
2022/06/16 12:11:56;;;;;;;1999.90;999.90;;;31.00;34.40;;;;;;4997045;28;20041;-77
2022/06/16 12:14:40;;;;;;;1999.90;999.90;;;31.20;34.40;;;;;;4994289;28;20084;-77
2022/06/16 12:17:23;;;;;;;1999.90;999.90;;;31.40;34.10;;;;;;4993566;28;20038;-77
2022/06/16 12:20:10;;;;;;;1999.90;999.90;;;31.40;33.50;;;;;;5008652;28;20026;-78
2022/06/16 12:22:43;;;;;;;1999.90;999.90;;;31.50;34.10;;;;;;5012591;28;20034;-78
2022/06/16 12:25:11;;;;;;;1999.90;999.90;;;31.70;33.20;;;;;;4993372;28;20037;-78
2022/06/16 12:27:49;;;;;;;1999.90;999.90;;;31.70;32.30;;;;;;4992411;28;20040;-78
2022/06/16 12:30:16;;;;;;;1999.90;999.90;;;31.60;32.10;;;;;;4992072;28;20036;-77
2022/06/16 12:32:49;;;;;;;1999.90;999.90;;;31.60;32.90;;;;;;4992611;28;20382;-78
2022/06/16 12:35:22;;;;;;;1999.90;999.90;;;31.70;33.20;;;;;;4975680;28;20034;-77
2022/06/16 12:38:11;;;;;;;1999.90;999.90;;;31.80;32.90;;;;;;5008577;28;20056;-77
2022/06/16 12:40:52;;;;;;;1999.90;999.90;;;31.60;32.70;;;;;;5012374;28;20022;-78
2022/06/16 12:43:19;;;;;;;1999.90;999.90;;;31.70;32.30;;;;;;5012614;28;20037;-77
2022/06/16 12:45:58;;;;;;;1999.90;999.90;;;31.60;33.50;;;;;;4991922;28;20099;-77
2022/06/16 12:48:27;;;;;;;1999.90;999.90;;;31.70;33.10;;;;;;4992629;28;20044;-78
2022/06/16 12:50:55;;;;;;;1999.90;999.90;;;31.80;31.60;;;;;;4992434;28;20037;-77
2022/06/16 12:53:31;;;;;;;1999.90;999.90;;;31.70;32.20;;;;;;5008785;28;20034;-77
2022/06/16 12:56:04;;;;;;;1999.90;999.90;;;31.70;33.00;;;;;;5010303;28;20025;-78
2022/06/16 12:58:32;;;;;;;1999.90;999.90;;;31.90;32.80;;;;;;4976881;28;20041;-77
2022/06/16 13:01:00;;;;;;;1999.90;999.90;;;32.00;33.10;;;;;;4974130;28;20475;-78
2022/06/16 13:03:32;;;;;;;1999.90;999.90;;;32.10;33.20;;;;;;5002168;28;20030;-77
2022/06/16 13:05:58;;;;;;;1999.90;999.90;;;32.00;32.40;;;;;;4992280;28;20037;-78
2022/06/16 13:08:25;;;;;;;1999.90;999.90;;;32.00;32.30;;;;;;4991915;28;20030;-78
2022/06/16 13:10:57;;;;;;;1999.90;999.90;;;32.30;32.20;;;;;;5010955;28;20045;-77